sensor_id;sensor_type;location;lat;lon;timestamp;temperature;humidity
26053;DHT22;13826;51.186;4.450;2023-03-01T00:01:31;1.70;1.00
26053;DHT22;13826;51.186;4.450;2023-03-01T00:03:57;1.70;1.00
26053;DHT22;13826;51.186;4.450;2023-03-01T00:06:23;1.70;1.00
26053;DHT22;13826;51.186;4.450;2023-03-01T00:08:49;1.60;1.00
26053;DHT22;13826;51.186;4.450;2023-03-01T00:13:41;1.50;1.00
26053;DHT22;13826;51.186;4.450;2023-03-01T00:16:08;1.60;1.00
26053;DHT22;13826;51.186;4.450;2023-03-01T00:18:34;1.60;1.00
26053;DHT22;13826;51.186;4.450;2023-03-01T00:20:59;1.60;1.00
26053;DHT22;13826;51.186;4.450;2023-03-01T00:23:25;1.60;1.00
26053;DHT22;13826;51.186;4.450;2023-03-01T00:25:51;1.70;1.00
26053;DHT22;13826;51.186;4.450;2023-03-01T00:28:16;1.60;1.00
26053;DHT22;13826;51.186;4.450;2023-03-01T00:30:42;1.70;1.00
26053;DHT22;13826;51.186;4.450;2023-03-01T00:33:08;1.80;1.00
26053;DHT22;13826;51.186;4.450;2023-03-01T00:35:33;1.80;1.00
26053;DHT22;13826;51.186;4.450;2023-03-01T00:37:59;1.70;1.00
26053;DHT22;13826;51.186;4.450;2023-03-01T00:40:25;1.70;1.00
26053;DHT22;13826;51.186;4.450;2023-03-01T00:42:51;1.60;1.00
26053;DHT22;13826;51.186;4.450;2023-03-01T00:45:16;1.60;1.00
26053;DHT22;13826;51.186;4.450;2023-03-01T00:47:42;1.50;1.00
26053;DHT22;13826;51.186;4.450;2023-03-01T00:50:08;1.50;1.00
26053;DHT22;13826;51.186;4.450;2023-03-01T00:52:34;1.50;1.00
26053;DHT22;13826;51.186;4.450;2023-03-01T00:54:59;1.50;1.00
26053;DHT22;13826;51.186;4.450;2023-03-01T00:57:25;1.50;1.00
26053;DHT22;13826;51.186;4.450;2023-03-01T00:59:50;1.40;1.00
26053;DHT22;13826;51.186;4.450;2023-03-01T01:02:17;1.30;1.00
26053;DHT22;13826;51.186;4.450;2023-03-01T01:04:43;1.30;1.00
26053;DHT22;13826;51.186;4.450;2023-03-01T01:07:09;1.30;1.00
26053;DHT22;13826;51.186;4.450;2023-03-01T01:09:34;1.30;1.00
26053;DHT22;13826;51.186;4.450;2023-03-01T01:12:00;1.20;1.00
26053;DHT22;13826;51.186;4.450;2023-03-01T01:14:26;1.20;1.00
26053;DHT22;13826;51.186;4.450;2023-03-01T01:16:52;1.20;1.00
26053;DHT22;13826;51.186;4.450;2023-03-01T01:19:17;1.20;1.00
26053;DHT22;13826;51.186;4.450;2023-03-01T01:21:43;1.10;1.00
26053;DHT22;13826;51.186;4.450;2023-03-01T01:24:08;1.10;1.00
26053;DHT22;13826;51.186;4.450;2023-03-01T01:26:34;1.10;1.00
26053;DHT22;13826;51.186;4.450;2023-03-01T01:29:00;1.00;1.00
26053;DHT22;13826;51.186;4.450;2023-03-01T01:31:26;1.00;1.00
26053;DHT22;13826;51.186;4.450;2023-03-01T01:33:52;0.90;1.00
26053;DHT22;13826;51.186;4.450;2023-03-01T01:36:18;0.90;1.00
26053;DHT22;13826;51.186;4.450;2023-03-01T01:38:44;1.00;1.00
26053;DHT22;13826;51.186;4.450;2023-03-01T01:41:10;1.00;1.00
26053;DHT22;13826;51.186;4.450;2023-03-01T01:43:42;1.10;1.00
26053;DHT22;13826;51.186;4.450;2023-03-01T01:48:37;1.10;1.00
26053;DHT22;13826;51.186;4.450;2023-03-01T01:51:05;1.00;1.00
26053;DHT22;13826;51.186;4.450;2023-03-01T01:53:31;1.00;1.00
26053;DHT22;13826;51.186;4.450;2023-03-01T01:55:58;1.00;1.00
26053;DHT22;13826;51.186;4.450;2023-03-01T01:58:25;1.10;1.00
26053;DHT22;13826;51.186;4.450;2023-03-01T02:00:54;1.20;1.00
26053;DHT22;13826;51.186;4.450;2023-03-01T02:03:22;1.20;1.00
26053;DHT22;13826;51.186;4.450;2023-03-01T02:05:53;1.30;1.00
26053;DHT22;13826;51.186;4.450;2023-03-01T02:08:20;1.20;1.00
26053;DHT22;13826;51.186;4.450;2023-03-01T02:10:48;1.20;1.00
26053;DHT22;13826;51.186;4.450;2023-03-01T02:13:14;1.00;1.00
26053;DHT22;13826;51.186;4.450;2023-03-01T02:15:40;1.10;1.00
26053;DHT22;13826;51.186;4.450;2023-03-01T02:18:07;1.10;1.00
26053;DHT22;13826;51.186;4.450;2023-03-01T02:20:35;1.20;1.00
26053;DHT22;13826;51.186;4.450;2023-03-01T02:23:02;1.10;1.00
26053;DHT22;13826;51.186;4.450;2023-03-01T02:30:20;1.00;1.00
26053;DHT22;13826;51.186;4.450;2023-03-01T02:32:46;0.90;1.00
26053;DHT22;13826;51.186;4.450;2023-03-01T02:35:13;1.00;1.00
26053;DHT22;13826;51.186;4.450;2023-03-01T02:37:40;0.90;1.00
26053;DHT22;13826;51.186;4.450;2023-03-01T02:40:07;0.90;1.00
26053;DHT22;13826;51.186;4.450;2023-03-01T02:42:38;0.90;1.00
26053;DHT22;13826;51.186;4.450;2023-03-01T02:45:05;0.90;1.00
26053;DHT22;13826;51.186;4.450;2023-03-01T02:47:31;0.80;1.00
26053;DHT22;13826;51.186;4.450;2023-03-01T02:49:56;0.80;1.00
26053;DHT22;13826;51.186;4.450;2023-03-01T02:57:26;0.80;1.00
26053;DHT22;13826;51.186;4.450;2023-03-01T02:59:53;0.80;1.00
26053;DHT22;13826;51.186;4.450;2023-03-01T03:02:23;0.70;1.00
26053;DHT22;13826;51.186;4.450;2023-03-01T03:05:12;0.70;1.00
26053;DHT22;13826;51.186;4.450;2023-03-01T03:07:39;0.80;1.00
26053;DHT22;13826;51.186;4.450;2023-03-01T03:10:06;0.80;1.00
26053;DHT22;13826;51.186;4.450;2023-03-01T03:12:32;0.80;1.00
26053;DHT22;13826;51.186;4.450;2023-03-01T03:14:57;0.80;1.00
26053;DHT22;13826;51.186;4.450;2023-03-01T03:17:23;0.70;1.00
26053;DHT22;13826;51.186;4.450;2023-03-01T03:19:48;0.60;1.00
26053;DHT22;13826;51.186;4.450;2023-03-01T03:22:14;0.50;1.00
26053;DHT22;13826;51.186;4.450;2023-03-01T03:24:40;0.40;3.90
26053;DHT22;13826;51.186;4.450;2023-03-01T03:27:06;0.40;7.30
26053;DHT22;13826;51.186;4.450;2023-03-01T03:29:31;0.40;10.60
26053;DHT22;13826;51.186;4.450;2023-03-01T03:31:57;0.40;12.80
26053;DHT22;13826;51.186;4.450;2023-03-01T03:34:23;0.30;12.40
26053;DHT22;13826;51.186;4.450;2023-03-01T03:36:52;0.30;15.70
26053;DHT22;13826;51.186;4.450;2023-03-01T03:39:22;0.30;17.50
26053;DHT22;13826;51.186;4.450;2023-03-01T03:41:48;0.20;19.20
26053;DHT22;13826;51.186;4.450;2023-03-01T03:44:14;0.20;20.00
26053;DHT22;13826;51.186;4.450;2023-03-01T03:46:39;0.20;22.20
26053;DHT22;13826;51.186;4.450;2023-03-01T03:49:05;0.20;23.30
26053;DHT22;13826;51.186;4.450;2023-03-01T03:51:30;0.20;23.80
26053;DHT22;13826;51.186;4.450;2023-03-01T03:53:56;0.20;25.00
26053;DHT22;13826;51.186;4.450;2023-03-01T03:56:21;0.10;26.10
26053;DHT22;13826;51.186;4.450;2023-03-01T03:58:51;0.10;27.40
26053;DHT22;13826;51.186;4.450;2023-03-01T04:01:17;0.10;28.00
26053;DHT22;13826;51.186;4.450;2023-03-01T04:03:42;0.10;28.90
26053;DHT22;13826;51.186;4.450;2023-03-01T04:06:11;0.10;29.20
26053;DHT22;13826;51.186;4.450;2023-03-01T04:08:37;0.10;30.00
26053;DHT22;13826;51.186;4.450;2023-03-01T04:11:03;0.00;30.80
26053;DHT22;13826;51.186;4.450;2023-03-01T04:13:49;0.00;33.90
26053;DHT22;13826;51.186;4.450;2023-03-01T04:16:15;0.00;33.10
26053;DHT22;13826;51.186;4.450;2023-03-01T04:18:41;0.00;33.50
26053;DHT22;13826;51.186;4.450;2023-03-01T04:21:07;0.00;34.10
26053;DHT22;13826;51.186;4.450;2023-03-01T04:23:32;0.00;36.40
26053;DHT22;13826;51.186;4.450;2023-03-01T04:25:58;0.00;37.20
26053;DHT22;13826;51.186;4.450;2023-03-01T04:28:25;0.00;40.00
26053;DHT22;13826;51.186;4.450;2023-03-01T04:30:51;-0.10;40.50
26053;DHT22;13826;51.186;4.450;2023-03-01T04:33:17;-0.10;41.80
26053;DHT22;13826;51.186;4.450;2023-03-01T04:35:43;-0.10;43.10
26053;DHT22;13826;51.186;4.450;2023-03-01T04:38:08;-0.10;44.10
26053;DHT22;13826;51.186;4.450;2023-03-01T04:40:34;-0.20;45.30
26053;DHT22;13826;51.186;4.450;2023-03-01T04:43:00;-0.20;46.70
26053;DHT22;13826;51.186;4.450;2023-03-01T04:45:26;-0.10;46.60
26053;DHT22;13826;51.186;4.450;2023-03-01T04:47:51;-0.10;45.50
26053;DHT22;13826;51.186;4.450;2023-03-01T04:50:20;-0.20;45.00
26053;DHT22;13826;51.186;4.450;2023-03-01T04:52:46;-0.20;46.50
26053;DHT22;13826;51.186;4.450;2023-03-01T04:55:12;-0.20;48.00
26053;DHT22;13826;51.186;4.450;2023-03-01T04:57:38;-0.10;47.40
26053;DHT22;13826;51.186;4.450;2023-03-01T05:00:04;-0.10;47.50
26053;DHT22;13826;51.186;4.450;2023-03-01T05:02:46;-0.10;47.90
26053;DHT22;13826;51.186;4.450;2023-03-01T05:05:12;-0.20;47.90
26053;DHT22;13826;51.186;4.450;2023-03-01T05:07:38;-0.10;47.80
26053;DHT22;13826;51.186;4.450;2023-03-01T05:10:03;-0.10;48.20
26053;DHT22;13826;51.186;4.450;2023-03-01T05:12:29;-0.10;49.00
26053;DHT22;13826;51.186;4.450;2023-03-01T05:14:54;-0.20;50.70
26053;DHT22;13826;51.186;4.450;2023-03-01T05:17:20;-0.20;50.10
26053;DHT22;13826;51.186;4.450;2023-03-01T05:19:45;-0.20;50.60
26053;DHT22;13826;51.186;4.450;2023-03-01T05:22:11;-0.20;51.20
26053;DHT22;13826;51.186;4.450;2023-03-01T05:24:36;-0.20;51.90
26053;DHT22;13826;51.186;4.450;2023-03-01T05:27:03;-0.20;52.10
26053;DHT22;13826;51.186;4.450;2023-03-01T05:29:30;-0.20;53.50
26053;DHT22;13826;51.186;4.450;2023-03-01T05:31:57;-0.20;52.10
26053;DHT22;13826;51.186;4.450;2023-03-01T05:34:24;-0.20;51.30
26053;DHT22;13826;51.186;4.450;2023-03-01T05:36:51;-0.20;52.70
26053;DHT22;13826;51.186;4.450;2023-03-01T05:39:21;-0.30;55.50
26053;DHT22;13826;51.186;4.450;2023-03-01T05:41:48;-0.30;56.50
26053;DHT22;13826;51.186;4.450;2023-03-01T05:44:13;-0.30;56.90
26053;DHT22;13826;51.186;4.450;2023-03-01T05:46:39;-0.30;58.00
26053;DHT22;13826;51.186;4.450;2023-03-01T05:49:04;-0.30;57.00
26053;DHT22;13826;51.186;4.450;2023-03-01T05:51:30;-0.30;56.60
26053;DHT22;13826;51.186;4.450;2023-03-01T05:53:56;-0.40;57.80
26053;DHT22;13826;51.186;4.450;2023-03-01T05:56:21;-0.30;56.30
26053;DHT22;13826;51.186;4.450;2023-03-01T05:58:48;-0.30;55.30
26053;DHT22;13826;51.186;4.450;2023-03-01T06:01:13;-0.40;56.20
26053;DHT22;13826;51.186;4.450;2023-03-01T06:03:39;-0.40;56.50
26053;DHT22;13826;51.186;4.450;2023-03-01T06:06:04;-0.40;56.60
26053;DHT22;13826;51.186;4.450;2023-03-01T06:08:30;-0.30;56.60
26053;DHT22;13826;51.186;4.450;2023-03-01T06:10:55;-0.30;55.80
26053;DHT22;13826;51.186;4.450;2023-03-01T06:13:21;-0.40;56.30
26053;DHT22;13826;51.186;4.450;2023-03-01T06:15:48;-0.40;56.20
26053;DHT22;13826;51.186;4.450;2023-03-01T06:18:14;-0.30;54.10
26053;DHT22;13826;51.186;4.450;2023-03-01T06:20:39;-0.30;53.90
26053;DHT22;13826;51.186;4.450;2023-03-01T06:23:05;-0.30;55.00
26053;DHT22;13826;51.186;4.450;2023-03-01T06:25:31;-0.30;54.00
26053;DHT22;13826;51.186;4.450;2023-03-01T06:27:57;-0.20;54.20
26053;DHT22;13826;51.186;4.450;2023-03-01T06:30:23;-0.30;53.50
26053;DHT22;13826;51.186;4.450;2023-03-01T06:32:49;-0.30;53.50
26053;DHT22;13826;51.186;4.450;2023-03-01T06:35:15;-0.30;52.90
26053;DHT22;13826;51.186;4.450;2023-03-01T06:37:43;-0.30;51.60
26053;DHT22;13826;51.186;4.450;2023-03-01T06:40:12;-0.30;53.10
26053;DHT22;13826;51.186;4.450;2023-03-01T06:42:40;-0.30;53.70
26053;DHT22;13826;51.186;4.450;2023-03-01T06:45:06;-0.30;53.60
26053;DHT22;13826;51.186;4.450;2023-03-01T06:47:32;-0.20;50.90
26053;DHT22;13826;51.186;4.450;2023-03-01T06:49:59;-0.10;49.40
26053;DHT22;13826;51.186;4.450;2023-03-01T06:52:24;-0.10;47.20
26053;DHT22;13826;51.186;4.450;2023-03-01T06:54:50;-0.10;47.40
26053;DHT22;13826;51.186;4.450;2023-03-01T06:57:16;-0.10;47.20
26053;DHT22;13826;51.186;4.450;2023-03-01T06:59:41;-0.10;45.00
26053;DHT22;13826;51.186;4.450;2023-03-01T07:02:09;-0.10;43.00
26053;DHT22;13826;51.186;4.450;2023-03-01T07:04:35;-0.10;44.70
26053;DHT22;13826;51.186;4.450;2023-03-01T07:07:00;-0.10;44.50
26053;DHT22;13826;51.186;4.450;2023-03-01T07:09:26;-0.10;46.00
26053;DHT22;13826;51.186;4.450;2023-03-01T07:11:52;0.10;44.40
26053;DHT22;13826;51.186;4.450;2023-03-01T07:14:17;0.10;37.30
26053;DHT22;13826;51.186;4.450;2023-03-01T07:16:45;0.10;37.10
26053;DHT22;13826;51.186;4.450;2023-03-01T07:19:10;0.30;38.80
26053;DHT22;13826;51.186;4.450;2023-03-01T07:21:36;0.20;30.90
26053;DHT22;13826;51.186;4.450;2023-03-01T07:24:05;0.30;29.00
26053;DHT22;13826;51.186;4.450;2023-03-01T07:26:31;0.40;27.50
26053;DHT22;13826;51.186;4.450;2023-03-01T07:28:58;0.40;25.50
26053;DHT22;13826;51.186;4.450;2023-03-01T07:31:24;0.40;24.40
26053;DHT22;13826;51.186;4.450;2023-03-01T07:33:50;0.40;20.10
26053;DHT22;13826;51.186;4.450;2023-03-01T07:36:16;0.50;21.60
26053;DHT22;13826;51.186;4.450;2023-03-01T07:38:41;0.50;19.60
26053;DHT22;13826;51.186;4.450;2023-03-01T07:41:07;0.60;19.60
26053;DHT22;13826;51.186;4.450;2023-03-01T07:43:33;0.70;16.60
26053;DHT22;13826;51.186;4.450;2023-03-01T07:46:00;1.00;6.90
26053;DHT22;13826;51.186;4.450;2023-03-01T07:48:26;2.70;1.00
26053;DHT22;13826;51.186;4.450;2023-03-01T07:50:51;4.80;99.90
26053;DHT22;13826;51.186;4.450;2023-03-01T07:53:17;6.70;1.00
26053;DHT22;13826;51.186;4.450;2023-03-01T07:55:46;8.40;99.90
26053;DHT22;13826;51.186;4.450;2023-03-01T07:58:17;10.30;1.00
26053;DHT22;13826;51.186;4.450;2023-03-01T08:00:43;12.10;99.90
26053;DHT22;13826;51.186;4.450;2023-03-01T08:03:12;13.10;95.90
26053;DHT22;13826;51.186;4.450;2023-03-01T08:05:38;14.10;18.10
26053;DHT22;13826;51.186;4.450;2023-03-01T08:08:03;13.80;1.00
26053;DHT22;13826;51.186;4.450;2023-03-01T08:10:30;14.10;1.00
26053;DHT22;13826;51.186;4.450;2023-03-01T08:12:55;14.60;1.00
26053;DHT22;13826;51.186;4.450;2023-03-01T08:15:21;15.00;1.00
26053;DHT22;13826;51.186;4.450;2023-03-01T08:17:48;14.60;1.00
26053;DHT22;13826;51.186;4.450;2023-03-01T08:20:17;14.20;1.00
26053;DHT22;13826;51.186;4.450;2023-03-01T08:22:43;13.80;1.00
26053;DHT22;13826;51.186;4.450;2023-03-01T08:25:08;14.60;1.00
26053;DHT22;13826;51.186;4.450;2023-03-01T08:27:34;14.40;1.00
26053;DHT22;13826;51.186;4.450;2023-03-01T08:30:00;14.20;1.00
26053;DHT22;13826;51.186;4.450;2023-03-01T08:32:26;13.50;1.00
26053;DHT22;13826;51.186;4.450;2023-03-01T08:34:51;14.30;1.00
26053;DHT22;13826;51.186;4.450;2023-03-01T08:37:17;15.50;1.00
26053;DHT22;13826;51.186;4.450;2023-03-01T08:39:42;15.20;1.00
26053;DHT22;13826;51.186;4.450;2023-03-01T08:42:08;15.10;1.00
26053;DHT22;13826;51.186;4.450;2023-03-01T08:44:34;14.90;1.00
26053;DHT22;13826;51.186;4.450;2023-03-01T08:47:00;15.50;1.00
26053;DHT22;13826;51.186;4.450;2023-03-01T08:49:27;14.70;1.00
26053;DHT22;13826;51.186;4.450;2023-03-01T08:51:53;15.00;1.00
26053;DHT22;13826;51.186;4.450;2023-03-01T08:54:20;15.40;1.00
26053;DHT22;13826;51.186;4.450;2023-03-01T08:56:46;16.40;1.00
26053;DHT22;13826;51.186;4.450;2023-03-01T08:59:12;16.50;1.00
26053;DHT22;13826;51.186;4.450;2023-03-01T09:01:38;16.90;1.00
26053;DHT22;13826;51.186;4.450;2023-03-01T09:04:03;16.40;1.00
26053;DHT22;13826;51.186;4.450;2023-03-01T09:06:33;16.70;1.00
26053;DHT22;13826;51.186;4.450;2023-03-01T09:08:58;16.30;1.00
26053;DHT22;13826;51.186;4.450;2023-03-01T09:11:24;16.20;1.00
26053;DHT22;13826;51.186;4.450;2023-03-01T09:13:50;16.10;1.00
26053;DHT22;13826;51.186;4.450;2023-03-01T09:16:18;15.20;1.00
26053;DHT22;13826;51.186;4.450;2023-03-01T09:18:44;14.60;1.00
26053;DHT22;13826;51.186;4.450;2023-03-01T09:21:12;14.20;1.00
26053;DHT22;13826;51.186;4.450;2023-03-01T09:23:41;13.50;1.00
26053;DHT22;13826;51.186;4.450;2023-03-01T09:26:07;14.10;1.00
26053;DHT22;13826;51.186;4.450;2023-03-01T09:28:34;14.10;1.00
26053;DHT22;13826;51.186;4.450;2023-03-01T09:31:01;13.50;1.00
26053;DHT22;13826;51.186;4.450;2023-03-01T09:33:28;14.30;1.00
26053;DHT22;13826;51.186;4.450;2023-03-01T09:36:00;15.60;1.00
26053;DHT22;13826;51.186;4.450;2023-03-01T09:38:26;15.30;1.00
26053;DHT22;13826;51.186;4.450;2023-03-01T09:40:52;13.40;1.00
26053;DHT22;13826;51.186;4.450;2023-03-01T09:46:06;14.30;1.00
26053;DHT22;13826;51.186;4.450;2023-03-01T09:48:37;13.80;1.00
26053;DHT22;13826;51.186;4.450;2023-03-01T09:51:06;15.00;1.00
26053;DHT22;13826;51.186;4.450;2023-03-01T09:53:34;16.60;1.00
26053;DHT22;13826;51.186;4.450;2023-03-01T09:56:15;16.10;1.00
26053;DHT22;13826;51.186;4.450;2023-03-01T10:04:26;16.40;1.00
26053;DHT22;13826;51.186;4.450;2023-03-01T10:09:42;17.20;1.00
26053;DHT22;13826;51.186;4.450;2023-03-01T10:12:12;15.60;1.00
26053;DHT22;13826;51.186;4.450;2023-03-01T10:14:39;15.90;1.00
26053;DHT22;13826;51.186;4.450;2023-03-01T10:17:11;16.00;1.00
26053;DHT22;13826;51.186;4.450;2023-03-01T10:19:41;16.50;1.00
26053;DHT22;13826;51.186;4.450;2023-03-01T10:24:38;14.60;1.00
26053;DHT22;13826;51.186;4.450;2023-03-01T10:27:05;14.80;1.00
26053;DHT22;13826;51.186;4.450;2023-03-01T10:32:24;17.40;1.00
26053;DHT22;13826;51.186;4.450;2023-03-01T10:34:51;18.60;1.00
26053;DHT22;13826;51.186;4.450;2023-03-01T10:37:17;19.40;1.00
26053;DHT22;13826;51.186;4.450;2023-03-01T10:42:26;18.50;1.00
26053;DHT22;13826;51.186;4.450;2023-03-01T10:44:52;17.80;1.00
26053;DHT22;13826;51.186;4.450;2023-03-01T10:47:27;17.90;1.00
26053;DHT22;13826;51.186;4.450;2023-03-01T10:50:00;18.30;1.00
26053;DHT22;13826;51.186;4.450;2023-03-01T10:52:30;16.80;1.00
26053;DHT22;13826;51.186;4.450;2023-03-01T10:57:48;18.00;1.00
26053;DHT22;13826;51.186;4.450;2023-03-01T11:00:18;19.40;1.00
26053;DHT22;13826;51.186;4.450;2023-03-01T11:02:49;19.70;1.00
26053;DHT22;13826;51.186;4.450;2023-03-01T11:05:23;17.90;1.00
26053;DHT22;13826;51.186;4.450;2023-03-01T11:10:22;16.90;1.00
26053;DHT22;13826;51.186;4.450;2023-03-01T11:12:48;16.90;1.00
26053;DHT22;13826;51.186;4.450;2023-03-01T11:15:27;17.90;1.00
26053;DHT22;13826;51.186;4.450;2023-03-01T11:17:54;17.90;1.00
26053;DHT22;13826;51.186;4.450;2023-03-01T11:20:24;17.90;1.00
26053;DHT22;13826;51.186;4.450;2023-03-01T11:23:24;17.60;1.00
26053;DHT22;13826;51.186;4.450;2023-03-01T11:25:44;18.50;1.00
26053;DHT22;13826;51.186;4.450;2023-03-01T11:28:13;17.30;1.00
26053;DHT22;13826;51.186;4.450;2023-03-01T11:31:01;16.20;1.00
26053;DHT22;13826;51.186;4.450;2023-03-01T11:41:41;17.60;1.00
26053;DHT22;13826;51.186;4.450;2023-03-01T11:44:14;16.60;1.00
26053;DHT22;13826;51.186;4.450;2023-03-01T11:47:29;16.70;1.00
26053;DHT22;13826;51.186;4.450;2023-03-01T11:50:28;16.50;1.00
26053;DHT22;13826;51.186;4.450;2023-03-01T11:55:00;15.70;1.00
26053;DHT22;13826;51.186;4.450;2023-03-01T12:03:14;16.30;1.00
26053;DHT22;13826;51.186;4.450;2023-03-01T12:10:48;15.90;1.00
26053;DHT22;13826;51.186;4.450;2023-03-01T12:16:02;15.90;1.00
26053;DHT22;13826;51.186;4.450;2023-03-01T12:21:21;15.20;1.00
26053;DHT22;13826;51.186;4.450;2023-03-01T12:23:54;15.30;1.00
26053;DHT22;13826;51.186;4.450;2023-03-01T12:26:34;14.40;1.00
26053;DHT22;13826;51.186;4.450;2023-03-01T12:29:02;14.50;1.00
26053;DHT22;13826;51.186;4.450;2023-03-01T12:31:32;14.20;1.00
26053;DHT22;13826;51.186;4.450;2023-03-01T12:34:06;13.40;1.00
26053;DHT22;13826;51.186;4.450;2023-03-01T12:36:41;13.60;1.00
26053;DHT22;13826;51.186;4.450;2023-03-01T12:41:43;13.10;1.00
26053;DHT22;13826;51.186;4.450;2023-03-01T12:49:31;11.90;1.00
26053;DHT22;13826;51.186;4.450;2023-03-01T12:52:00;11.80;1.00
26053;DHT22;13826;51.186;4.450;2023-03-01T12:54:28;11.20;1.00
26053;DHT22;13826;51.186;4.450;2023-03-01T12:56:55;10.50;1.00
26053;DHT22;13826;51.186;4.450;2023-03-01T12:59:24;10.10;1.00
26053;DHT22;13826;51.186;4.450;2023-03-01T13:02:01;9.80;4.20
26053;DHT22;13826;51.186;4.450;2023-03-01T13:15:42;9.30;99.90
26053;DHT22;13826;51.186;4.450;2023-03-01T13:20:31;9.10;91.00
26053;DHT22;13826;51.186;4.450;2023-03-01T13:23:06;8.80;99.90
26053;DHT22;13826;51.186;4.450;2023-03-01T13:25:32;8.50;99.90
26053;DHT22;13826;51.186;4.450;2023-03-01T13:30:42;8.80;99.90
26053;DHT22;13826;51.186;4.450;2023-03-01T13:35:56;9.10;99.90
26053;DHT22;13826;51.186;4.450;2023-03-01T13:41:03;9.10;99.90
26053;DHT22;13826;51.186;4.450;2023-03-01T13:43:31;8.90;99.90
26053;DHT22;13826;51.186;4.450;2023-03-01T13:45:57;8.90;99.90
26053;DHT22;13826;51.186;4.450;2023-03-01T13:48:29;8.90;99.90
26053;DHT22;13826;51.186;4.450;2023-03-01T13:50:58;8.90;99.90
26053;DHT22;13826;51.186;4.450;2023-03-01T13:53:25;8.90;99.90
26053;DHT22;13826;51.186;4.450;2023-03-01T13:55:52;8.90;99.90
26053;DHT22;13826;51.186;4.450;2023-03-01T14:00:54;8.70;99.90
26053;DHT22;13826;51.186;4.450;2023-03-01T14:03:21;8.70;99.90
26053;DHT22;13826;51.186;4.450;2023-03-01T14:08:34;8.60;99.90
26053;DHT22;13826;51.186;4.450;2023-03-01T14:11:06;8.60;99.90
26053;DHT22;13826;51.186;4.450;2023-03-01T14:16:24;8.70;99.90
26053;DHT22;13826;51.186;4.450;2023-03-01T14:19:03;8.50;99.90
26053;DHT22;13826;51.186;4.450;2023-03-01T14:21:32;8.50;99.90
26053;DHT22;13826;51.186;4.450;2023-03-01T14:23:58;8.50;99.90
26053;DHT22;13826;51.186;4.450;2023-03-01T14:26:24;8.50;99.90
26053;DHT22;13826;51.186;4.450;2023-03-01T14:28:49;8.50;99.90
26053;DHT22;13826;51.186;4.450;2023-03-01T14:31:32;8.50;99.90
26053;DHT22;13826;51.186;4.450;2023-03-01T14:33:59;8.50;99.90
26053;DHT22;13826;51.186;4.450;2023-03-01T14:36:28;8.60;99.90
26053;DHT22;13826;51.186;4.450;2023-03-01T14:38:57;8.60;99.90
26053;DHT22;13826;51.186;4.450;2023-03-01T14:41:33;8.50;99.90
26053;DHT22;13826;51.186;4.450;2023-03-01T14:44:01;8.50;99.90
26053;DHT22;13826;51.186;4.450;2023-03-01T14:46:32;8.30;99.90
26053;DHT22;13826;51.186;4.450;2023-03-01T14:49:01;8.30;99.90
26053;DHT22;13826;51.186;4.450;2023-03-01T14:51:27;8.40;99.90
26053;DHT22;13826;51.186;4.450;2023-03-01T14:53:53;8.50;99.90
26053;DHT22;13826;51.186;4.450;2023-03-01T14:56:19;8.40;99.90
26053;DHT22;13826;51.186;4.450;2023-03-01T14:58:44;8.30;99.90
26053;DHT22;13826;51.186;4.450;2023-03-01T15:01:13;8.30;99.90
26053;DHT22;13826;51.186;4.450;2023-03-01T15:03:40;8.40;99.90
26053;DHT22;13826;51.186;4.450;2023-03-01T15:06:09;8.50;99.90
26053;DHT22;13826;51.186;4.450;2023-03-01T15:08:37;8.50;99.90
26053;DHT22;13826;51.186;4.450;2023-03-01T15:11:22;8.50;99.90
26053;DHT22;13826;51.186;4.450;2023-03-01T15:13:50;8.30;99.90
26053;DHT22;13826;51.186;4.450;2023-03-01T15:16:19;8.20;1.00
26053;DHT22;13826;51.186;4.450;2023-03-01T15:18:47;8.40;1.00
26053;DHT22;13826;51.186;4.450;2023-03-01T15:21:18;8.30;99.90
26053;DHT22;13826;51.186;4.450;2023-03-01T15:23:47;8.40;99.90
26053;DHT22;13826;51.186;4.450;2023-03-01T15:26:28;8.30;99.90
26053;DHT22;13826;51.186;4.450;2023-03-01T15:28:54;8.30;99.90
26053;DHT22;13826;51.186;4.450;2023-03-01T15:31:24;8.30;99.90
26053;DHT22;13826;51.186;4.450;2023-03-01T15:33:51;8.20;99.90
26053;DHT22;13826;51.186;4.450;2023-03-01T15:36:29;8.30;99.90
26053;DHT22;13826;51.186;4.450;2023-03-01T15:38:56;8.30;99.90
26053;DHT22;13826;51.186;4.450;2023-03-01T15:41:32;8.30;99.90
26053;DHT22;13826;51.186;4.450;2023-03-01T15:43:59;8.30;99.90
26053;DHT22;13826;51.186;4.450;2023-03-01T15:46:27;8.20;99.90
26053;DHT22;13826;51.186;4.450;2023-03-01T15:49:04;8.10;99.90
26053;DHT22;13826;51.186;4.450;2023-03-01T15:51:34;8.10;99.90
26053;DHT22;13826;51.186;4.450;2023-03-01T15:54:13;8.10;99.90
26053;DHT22;13826;51.186;4.450;2023-03-01T15:56:41;8.10;99.90
26053;DHT22;13826;51.186;4.450;2023-03-01T15:59:11;8.10;99.90
26053;DHT22;13826;51.186;4.450;2023-03-01T16:01:43;8.10;99.90
26053;DHT22;13826;51.186;4.450;2023-03-01T16:04:11;8.10;1.00
26053;DHT22;13826;51.186;4.450;2023-03-01T16:06:41;8.00;99.90
26053;DHT22;13826;51.186;4.450;2023-03-01T16:09:07;7.90;1.00
26053;DHT22;13826;51.186;4.450;2023-03-01T16:11:33;7.90;1.00
26053;DHT22;13826;51.186;4.450;2023-03-01T16:14:01;7.80;1.00
26053;DHT22;13826;51.186;4.450;2023-03-01T16:16:27;7.80;1.00
26053;DHT22;13826;51.186;4.450;2023-03-01T16:18:53;7.70;1.00
26053;DHT22;13826;51.186;4.450;2023-03-01T16:21:25;7.70;1.00
26053;DHT22;13826;51.186;4.450;2023-03-01T16:23:51;7.70;1.00
26053;DHT22;13826;51.186;4.450;2023-03-01T16:26:18;7.70;1.00
26053;DHT22;13826;51.186;4.450;2023-03-01T16:28:44;7.60;1.00
26053;DHT22;13826;51.186;4.450;2023-03-01T16:31:10;7.60;15.90
26053;DHT22;13826;51.186;4.450;2023-03-01T16:33:36;7.60;1.00
26053;DHT22;13826;51.186;4.450;2023-03-01T16:36:08;7.60;25.20
26053;DHT22;13826;51.186;4.450;2023-03-01T16:38:34;7.40;1.00
26053;DHT22;13826;51.186;4.450;2023-03-01T16:41:00;7.30;1.00
26053;DHT22;13826;51.186;4.450;2023-03-01T16:43:26;7.30;1.00
26053;DHT22;13826;51.186;4.450;2023-03-01T16:45:51;7.10;1.00
26053;DHT22;13826;51.186;4.450;2023-03-01T16:48:17;7.10;1.00
26053;DHT22;13826;51.186;4.450;2023-03-01T16:50:43;7.00;99.90
26053;DHT22;13826;51.186;4.450;2023-03-01T16:53:08;7.00;99.90
26053;DHT22;13826;51.186;4.450;2023-03-01T16:55:34;6.90;99.90
26053;DHT22;13826;51.186;4.450;2023-03-01T16:58:00;6.90;99.90
26053;DHT22;13826;51.186;4.450;2023-03-01T17:00:26;6.90;99.90
26053;DHT22;13826;51.186;4.450;2023-03-01T17:02:51;6.80;99.90
26053;DHT22;13826;51.186;4.450;2023-03-01T17:05:18;6.80;99.90
26053;DHT22;13826;51.186;4.450;2023-03-01T17:07:46;6.80;99.90
26053;DHT22;13826;51.186;4.450;2023-03-01T17:10:11;6.70;1.00
26053;DHT22;13826;51.186;4.450;2023-03-01T17:12:38;6.70;1.00
26053;DHT22;13826;51.186;4.450;2023-03-01T17:15:04;6.60;1.00
26053;DHT22;13826;51.186;4.450;2023-03-01T17:17:30;6.60;1.00
26053;DHT22;13826;51.186;4.450;2023-03-01T17:19:56;6.50;1.00
26053;DHT22;13826;51.186;4.450;2023-03-01T17:22:21;6.40;88.10
26053;DHT22;13826;51.186;4.450;2023-03-01T17:24:47;6.40;99.90
26053;DHT22;13826;51.186;4.450;2023-03-01T17:27:13;6.30;1.00
26053;DHT22;13826;51.186;4.450;2023-03-01T17:29:40;6.30;1.00
26053;DHT22;13826;51.186;4.450;2023-03-01T17:32:06;6.20;99.90
26053;DHT22;13826;51.186;4.450;2023-03-01T17:34:32;6.20;99.90